createdAt,value
2022-10-01T00:12:46.585Z,1020.76367
2022-10-01T00:27:48.951Z,796.64771
2022-10-01T00:42:51.568Z,646.9231
2022-10-01T00:57:53.848Z,411.50714
2022-10-01T01:12:56.091Z,264.60757
2022-10-01T01:27:58.612Z,80.9831
2022-10-01T01:43:00.999Z,15.06662
2022-10-01T01:58:03.228Z,0.94166
2022-10-01T02:13:05.631Z,0
2022-10-01T02:28:07.972Z,0
2022-10-01T02:43:10.335Z,0
2022-10-01T02:58:12.682Z,0
2022-10-01T03:13:15.184Z,0
2022-10-01T03:28:17.647Z,0
2022-10-01T03:43:19.960Z,0
2022-10-01T03:58:22.194Z,0
2022-10-01T04:13:24.564Z,0
2022-10-01T04:28:26.923Z,0
2022-10-01T04:43:29.633Z,0
2022-10-01T04:58:31.933Z,0
2022-10-01T05:13:34.180Z,0
2022-10-01T05:28:36.612Z,0
2022-10-01T05:43:39.057Z,0
2022-10-01T05:58:41.398Z,0
2022-10-01T06:13:43.649Z,0
2022-10-01T06:28:45.975Z,0
2022-10-01T06:43:48.261Z,0
2022-10-01T06:58:50.556Z,0
2022-10-01T07:13:54.727Z,0
2022-10-01T07:28:57.340Z,0
2022-10-01T07:43:59.628Z,0
2022-10-01T07:59:02.005Z,0
2022-10-01T08:14:04.350Z,0
2022-10-01T08:29:06.701Z,0
2022-10-01T08:44:09.035Z,0
2022-10-01T08:59:11.345Z,0
2022-10-01T09:14:13.791Z,0
2022-10-01T09:29:16.067Z,0
2022-10-01T09:44:19.020Z,0
2022-10-01T09:59:21.435Z,0
2022-10-01T10:14:23.708Z,0
2022-10-01T10:29:26.003Z,0
2022-10-01T10:44:28.376Z,0
2022-10-01T10:59:30.720Z,0
2022-10-01T11:14:33.007Z,0
2022-10-01T11:29:35.372Z,0
2022-10-01T11:44:37.660Z,0
2022-10-01T11:59:39.904Z,0
2022-10-01T12:14:42.256Z,0
2022-10-01T12:29:44.557Z,0
2022-10-01T12:44:46.832Z,0
2022-10-01T12:59:49.107Z,0
2022-10-01T13:14:51.423Z,0
2022-10-01T13:29:53.729Z,2.82499
2022-10-01T13:44:55.982Z,32.01657
2022-10-01T13:59:58.251Z,131.83295
2022-10-01T14:15:00.545Z,274.96585
2022-10-01T14:30:02.836Z,500.96521
2022-10-01T14:45:05.151Z,782.52271
2022-10-01T15:00:07.526Z,2367.34302
2022-10-01T15:15:09.819Z,3218.60718
2022-10-01T15:30:12.151Z,2906.9165
2022-10-01T15:45:14.415Z,6359.05664
2022-10-01T16:00:16.887Z,15437.63867
2022-10-01T16:15:19.415Z,14584.49121
2022-10-01T16:30:21.774Z,4204.5293
2022-10-01T16:45:24.097Z,10649.27734
2022-10-01T17:00:26.349Z,7635.01123
2022-10-01T17:15:28.743Z,6956.07129
2022-10-01T17:30:31.039Z,6782.80518
2022-10-01T17:45:33.458Z,6695.23047
2022-10-01T18:00:35.806Z,6631.19727
2022-10-01T18:15:38.083Z,6872.26318
2022-10-01T18:30:40.401Z,6666.03906
2022-10-01T18:45:42.788Z,6909.92969
2022-10-01T19:00:45.328Z,7034.22949
2022-10-01T19:15:47.662Z,7164.1792
2022-10-01T19:30:49.959Z,7212.2041
2022-10-01T19:45:52.261Z,7297.89551
2022-10-01T20:00:54.620Z,6942.88818
2022-10-01T20:15:57.211Z,6613.30566
2022-10-01T20:30:59.543Z,6363.76465
2022-10-01T20:46:01.968Z,6234.75684
2022-10-01T21:01:04.482Z,6507.83936
2022-10-01T21:16:07.061Z,6694.28857
2022-10-01T21:31:09.408Z,6387.30615
2022-10-01T21:46:11.816Z,5964.49951
2022-10-01T22:01:14.184Z,5265.78467
2022-10-01T22:16:16.606Z,4730.91943
2022-10-01T22:31:18.994Z,4382.50391
2022-10-01T22:46:21.287Z,4054.80493
2022-10-01T23:01:23.747Z,4041.62158
2022-10-01T23:16:26.217Z,3972.88013
2022-10-01T23:31:28.750Z,3395.64014
2022-10-01T23:46:31.188Z,2682.80054
